Time;durP1;ratioP1;P1;durP2;ratioP2;P2;SDS_P1;SDS_P2;PMS_P1;PMS_P2;Temp;Humidity;BMP_temperature;BMP_pressure;BME280_temperature;BME280_humidity;BME280_pressure;Samples;Min_cycle;Max_cycle;Signal;HPM_P1;HPM_P2
2022/12/30 00:00:08;;;;;;;2.88;1.77;;;;;;;;;;4993146;28;20112;-86
2022/12/30 00:02:35;;;;;;;3.65;1.88;;;;;;;;;;5000073;28;20466;-88
2022/12/30 00:05:01;;;;;;;3.60;1.70;;;;;;;;;;4992580;28;20093;-87
2022/12/30 00:07:26;;;;;;;4.95;2.20;;;;;;;;;;4996073;28;20042;-88
2022/12/30 00:09:53;;;;;;;2.70;1.70;;;;;;;;;;4997279;28;20117;-88
2022/12/30 00:34:35;;;;;;;4.07;1.80;;;;;;;;;;4996070;28;20058;-88
2022/12/30 00:37:01;;;;;;;3.67;2.03;;;;;;;;;;4996584;28;20510;-85
2022/12/30 00:39:27;;;;;;;4.60;1.90;;;;;;;;;;4997193;28;20030;-87
2022/12/30 00:44:37;;;;;;;3.28;1.80;;;;;;;;;;5003696;28;20038;-87
2022/12/30 00:47:03;;;;;;;4.28;2.00;;;;;;;;;;4995999;28;20084;-86
2022/12/30 00:57:40;;;;;;;6.70;2.80;;;;;;;;;;4995446;28;20384;-88
2022/12/30 01:00:08;;;;;;;4.07;1.95;;;;;;;;;;4996079;28;20081;-87
2022/12/30 01:02:34;;;;;;;3.67;2.00;;;;;;;;;;4995789;28;20045;-88
2022/12/30 01:04:59;;;;;;;3.75;2.00;;;;;;;;;;5011345;28;20137;-87
2022/12/30 01:07:28;;;;;;;4.65;2.13;;;;;;;;;;4995974;28;20049;-88
2022/12/30 01:09:54;;;;;;;4.88;2.25;;;;;;;;;;4995341;28;20034;-87
2022/12/30 01:12:21;;;;;;;4.28;2.35;;;;;;;;;;4996533;28;20045;-88
2022/12/30 01:14:51;;;;;;;4.53;2.28;;;;;;;;;;4995636;28;20045;-86
2022/12/30 01:17:22;;;;;;;3.33;2.13;;;;;;;;;;4995832;28;20084;-87
2022/12/30 01:19:47;;;;;;;3.92;2.10;;;;;;;;;;5010424;28;20116;-87
2022/12/30 01:22:13;;;;;;;4.10;2.10;;;;;;;;;;5011000;28;20086;-87
2022/12/30 01:24:39;;;;;;;5.38;2.20;;;;;;;;;;4994823;28;20626;-87
2022/12/30 01:27:05;;;;;;;3.30;2.00;;;;;;;;;;5011175;28;20553;-87
2022/12/30 01:29:36;;;;;;;4.00;2.20;;;;;;;;;;4995751;28;20034;-87
2022/12/30 01:32:03;;;;;;;3.85;1.90;;;;;;;;;;4995933;28;20065;-86
2022/12/30 01:34:29;;;;;;;6.13;2.13;;;;;;;;;;4993877;28;20038;-86
2022/12/30 01:36:54;;;;;;;4.97;2.10;;;;;;;;;;5005562;28;20092;-87
2022/12/30 01:39:20;;;;;;;4.18;1.92;;;;;;;;;;5011221;28;20038;-89
2022/12/30 01:41:47;;;;;;;4.22;2.33;;;;;;;;;;4995007;28;20483;-85
2022/12/30 01:44:49;;;;;;;4.05;2.17;;;;;;;;;;4997199;28;20030;-84
2022/12/30 01:47:19;;;;;;;5.00;2.42;;;;;;;;;;4978969;28;20038;-87
2022/12/30 01:49:48;;;;;;;4.70;2.20;;;;;;;;;;4995970;28;20089;-89
2022/12/30 01:52:16;;;;;;;4.22;2.20;;;;;;;;;;4995375;28;20026;-86
2022/12/30 01:54:42;;;;;;;3.72;2.05;;;;;;;;;;4994875;28;20030;-85
2022/12/30 01:57:08;;;;;;;4.18;2.00;;;;;;;;;;4994686;28;20076;-86
2022/12/30 01:59:35;;;;;;;4.60;2.10;;;;;;;;;;4995111;28;20030;-88
2022/12/30 02:02:02;;;;;;;3.33;1.98;;;;;;;;;;4994731;28;20034;-87
2022/12/30 02:04:28;;;;;;;4.90;2.03;;;;;;;;;;4993043;28;20041;-87
2022/12/30 02:07:22;;;;;;;3.45;2.10;;;;;;;;;;4993415;28;20121;-88
2022/12/30 02:09:50;;;;;;;5.15;2.00;;;;;;;;;;4992822;28;20664;-87
2022/12/30 02:12:15;;;;;;;7.88;2.00;;;;;;;;;;5009320;28;20057;-87
2022/12/30 02:14:43;;;;;;;3.80;2.05;;;;;;;;;;4993742;28;20407;-86
2022/12/30 02:17:28;;;;;;;3.88;2.30;;;;;;;;;;4992953;28;20070;-87
2022/12/30 02:20:15;;;;;;;3.95;2.20;;;;;;;;;;4994120;28;20480;-87
2022/12/30 02:23:18;;;;;;;3.42;2.10;;;;;;;;;;4992856;28;20100;-87
2022/12/30 02:26:01;;;;;;;5.20;2.20;;;;;;;;;;4993410;28;20058;-87
2022/12/30 02:29:03;;;;;;;3.92;2.15;;;;;;;;;;4993974;28;20042;-88
2022/12/30 02:31:55;;;;;;;4.65;2.00;;;;;;;;;;4992955;28;20042;-85
2022/12/30 02:34:34;;;;;;;4.38;2.40;;;;;;;;;;4977526;28;20042;-87
2022/12/30 02:37:05;;;;;;;4.32;2.50;;;;;;;;;;4992540;28;20454;-87
2022/12/30 02:39:47;;;;;;;5.00;2.38;;;;;;;;;;5009062;28;20026;-85
2022/12/30 02:45:07;;;;;;;6.25;2.50;;;;;;;;;;4993221;28;20038;-85
2022/12/30 02:47:39;;;;;;;3.72;1.80;;;;;;;;;;5006599;28;20038;-86
2022/12/30 02:53:07;;;;;;;2.85;1.65;;;;;;;;;;4993671;28;20065;-87
2022/12/30 02:55:32;;;;;;;1.83;1.05;;;;;;;;;;4992125;28;20073;-86
2022/12/30 02:57:57;;;;;;;2.47;1.15;;;;;;;;;;5008789;28;20069;-88
2022/12/30 03:03:59;;;;;;;2.03;1.05;;;;;;;;;;4992214;28;20034;-88
2022/12/30 03:06:51;;;;;;;1.30;0.90;;;;;;;;;;4987689;28;20130;-87
2022/12/30 03:12:56;;;;;;;1.10;0.80;;;;;;;;;;4993361;28;20105;-86
2022/12/30 03:15:29;;;;;;;0.93;0.77;;;;;;;;;;5007753;28;20496;-87
2022/12/30 03:17:56;;;;;;;1.17;0.70;;;;;;;;;;4993278;28;20503;-87
2022/12/30 03:20:23;;;;;;;1.17;0.77;;;;;;;;;;4993146;28;20073;-88
2022/12/30 03:28:27;;;;;;;0.70;0.70;;;;;;;;;;4972096;28;20192;-87
2022/12/30 03:31:01;;;;;;;0.90;0.80;;;;;;;;;;4992887;28;20034;-89
2022/12/30 03:33:28;;;;;;;1.98;0.80;;;;;;;;;;4992933;28;20034;-89
2022/12/30 03:36:02;;;;;;;2.33;0.70;;;;;;;;;;4992482;28;20086;-88
2022/12/30 03:38:32;;;;;;;1.58;0.70;;;;;;;;;;4991705;28;20034;-85
2022/12/30 03:41:00;;;;;;;1.52;0.80;;;;;;;;;;4980358;28;20041;-83
2022/12/30 03:43:27;;;;;;;2.78;0.90;;;;;;;;;;4999284;28;20041;-85
2022/12/30 03:45:53;;;;;;;0.82;0.55;;;;;;;;;;4990776;28;20038;-85
2022/12/30 03:48:19;;;;;;;1.40;0.70;;;;;;;;;;4996932;28;20034;-84
2022/12/30 03:50:45;;;;;;;1.40;0.65;;;;;;;;;;4997649;28;20129;-87
2022/12/30 03:53:10;;;;;;;0.40;0.40;;;;;;;;;;4992445;28;20045;-87
2022/12/30 03:55:36;;;;;;;1.40;0.60;;;;;;;;;;4992049;28;20037;-85
2022/12/30 03:58:01;;;;;;;0.73;0.40;;;;;;;;;;5007608;28;20395;-87
2022/12/30 04:00:27;;;;;;;0.95;0.45;;;;;;;;;;5003930;28;20045;-86
2022/12/30 04:02:52;;;;;;;0.40;0.40;;;;;;;;;;4991536;28;20140;-87
2022/12/30 04:05:18;;;;;;;0.82;0.50;;;;;;;;;;5007137;28;20125;-87
2022/12/30 04:07:43;;;;;;;0.40;0.40;;;;;;;;;;4992747;28;20034;-87
2022/12/30 04:10:09;;;;;;;0.40;0.40;;;;;;;;;;4992438;28;20109;-87
2022/12/30 04:12:34;;;;;;;1.48;0.50;;;;;;;;;;4991466;28;20069;-86
2022/12/30 04:15:00;;;;;;;0.50;0.45;;;;;;;;;;4990733;28;20452;-87
2022/12/30 04:17:25;;;;;;;0.50;0.45;;;;;;;;;;4991370;28;20040;-85
2022/12/30 04:19:51;;;;;;;0.77;0.40;;;;;;;;;;4991217;28;20612;-87
2022/12/30 04:22:16;;;;;;;0.73;0.40;;;;;;;;;;4991111;28;20125;-87
2022/12/30 04:24:42;;;;;;;0.85;0.50;;;;;;;;;;4992146;28;20053;-87
2022/12/30 04:27:07;;;;;;;0.63;0.50;;;;;;;;;;5007495;28;20080;-87
2022/12/30 04:29:33;;;;;;;0.60;0.50;;;;;;;;;;4992405;28;20031;-86
2022/12/30 04:31:59;;;;;;;1.00;0.80;;;;;;;;;;4992393;28;20121;-84
2022/12/30 04:34:24;;;;;;;1.25;0.90;;;;;;;;;;4991816;28;20065;-87
2022/12/30 04:36:50;;;;;;;0.95;0.80;;;;;;;;;;4992153;28;20034;-88
2022/12/30 04:39:15;;;;;;;0.75;0.50;;;;;;;;;;4991379;28;20069;-87
2022/12/30 04:41:41;;;;;;;1.55;0.50;;;;;;;;;;4992468;28;20129;-89
2022/12/30 04:44:06;;;;;;;0.70;0.20;;;;;;;;;;4992060;28;20073;-87
2022/12/30 04:46:32;;;;;;;1.42;0.80;;;;;;;;;;4992365;28;20407;-86
2022/12/30 04:48:58;;;;;;;1.50;0.50;;;;;;;;;;5007073;28;20403;-86
2022/12/30 04:51:23;;;;;;;0.60;0.60;;;;;;;;;;5002296;28;20051;-87
2022/12/30 04:53:49;;;;;;;0.45;0.45;;;;;;;;;;4991306;28;20050;-87
2022/12/30 04:56:15;;;;;;;0.55;0.40;;;;;;;;;;5010339;28;20039;-88
2022/12/30 04:58:40;;;;;;;0.70;0.50;;;;;;;;;;4994616;28;20510;-88
2022/12/30 05:01:06;;;;;;;0.80;0.60;;;;;;;;;;4995390;28;20034;-87
2022/12/30 05:03:31;;;;;;;0.70;0.50;;;;;;;;;;4994233;28;20034;-88
2022/12/30 05:05:57;;;;;;;1.00;0.70;;;;;;;;;;5009778;28;20054;-86
2022/12/30 05:08:22;;;;;;;0.65;0.60;;;;;;;;;;4995711;28;20480;-86
2022/12/30 05:10:48;;;;;;;0.30;0.30;;;;;;;;;;5016162;23;20042;-85
2022/12/30 05:13:14;;;;;;;0.80;0.50;;;;;;;;;;5017369;28;20073;-84
2022/12/30 05:15:41;;;;;;;1.15;0.57;;;;;;;;;;5016901;28;20514;-84
2022/12/30 05:18:06;;;;;;;0.65;0.60;;;;;;;;;;5018591;28;20096;-84
2022/12/30 05:20:32;;;;;;;0.50;0.50;;;;;;;;;;5018373;28;20033;-84
2022/12/30 05:22:57;;;;;;;1.25;0.50;;;;;;;;;;5018517;28;20037;-84
2022/12/30 05:28:07;;;;;;;1.30;0.70;;;;;;;;;;5017138;28;20064;-82
2022/12/30 05:30:32;;;;;;;1.23;0.80;;;;;;;;;;5018577;28;20042;-83
2022/12/30 05:32:58;;;;;;;1.50;0.73;;;;;;;;;;5018385;28;20034;-84
2022/12/30 05:35:23;;;;;;;1.70;0.85;;;;;;;;;;5017201;28;20045;-84
2022/12/30 05:37:49;;;;;;;1.38;0.80;;;;;;;;;;5017958;28;20028;-84
2022/12/30 05:40:14;;;;;;;1.35;0.55;;;;;;;;;;5018808;28;20057;-84
2022/12/30 05:42:40;;;;;;;0.52;0.43;;;;;;;;;;5016971;28;20038;-84
2022/12/30 05:45:07;;;;;;;0.85;0.60;;;;;;;;;;5018139;28;20071;-85
2022/12/30 05:47:32;;;;;;;0.80;0.52;;;;;;;;;;5018900;28;20034;-84
2022/12/30 05:49:58;;;;;;;2.17;0.90;;;;;;;;;;5019447;28;20406;-83
2022/12/30 05:52:23;;;;;;;1.90;1.20;;;;;;;;;;5019539;28;20026;-84
2022/12/30 05:54:49;;;;;;;2.65;1.40;;;;;;;;;;5017244;28;20139;-85
2022/12/30 05:57:14;;;;;;;2.80;1.50;;;;;;;;;;5001742;28;20038;-84
2022/12/30 05:59:40;;;;;;;2.25;1.40;;;;;;;;;;5017738;28;20034;-84
2022/12/30 06:02:06;;;;;;;3.83;1.30;;;;;;;;;;5018200;28;20026;-84
2022/12/30 06:04:31;;;;;;;2.33;1.38;;;;;;;;;;5000839;28;20037;-84
2022/12/30 06:06:56;;;;;;;3.10;1.63;;;;;;;;;;5018243;28;20402;-84
2022/12/30 06:09:22;;;;;;;2.38;1.67;;;;;;;;;;5018721;28;20045;-84
2022/12/30 06:11:47;;;;;;;5.68;2.60;;;;;;;;;;5016895;28;20057;-84
2022/12/30 06:14:15;;;;;;;3.80;2.20;;;;;;;;;;5017635;28;20049;-84
2022/12/30 06:16:41;;;;;;;3.67;1.80;;;;;;;;;;5018527;28;20045;-84
2022/12/30 06:19:07;;;;;;;2.40;1.52;;;;;;;;;;5018612;28;20492;-83
2022/12/30 06:21:33;;;;;;;2.83;1.50;;;;;;;;;;5018454;28;20088;-83
2022/12/30 06:23:58;;;;;;;2.10;1.38;;;;;;;;;;5016189;28;20080;-84
2022/12/30 06:26:24;;;;;;;1.98;1.40;;;;;;;;;;5000601;28;20037;-85
2022/12/30 06:28:50;;;;;;;2.00;1.27;;;;;;;;;;5017033;28;20060;-84
2022/12/30 06:31:15;;;;;;;2.47;1.48;;;;;;;;;;5017711;28;20030;-84
2022/12/30 06:33:41;;;;;;;2.33;1.50;;;;;;;;;;5017169;28;20034;-84
2022/12/30 06:36:07;;;;;;;3.00;1.50;;;;;;;;;;5018474;28;20475;-85
2022/12/30 06:38:32;;;;;;;2.17;1.20;;;;;;;;;;5017031;28;20053;-84
2022/12/30 06:40:58;;;;;;;2.22;1.23;;;;;;;;;;5016494;28;20041;-84
2022/12/30 06:43:23;;;;;;;2.33;1.55;;;;;;;;;;5018092;28;20029;-84
2022/12/30 06:45:49;;;;;;;5.72;2.40;;;;;;;;;;5015835;28;20044;-84
2022/12/30 06:48:14;;;;;;;8.25;3.13;;;;;;;;;;5016414;28;20037;-84
2022/12/30 06:50:40;;;;;;;7.53;3.10;;;;;;;;;;5000624;28;20069;-84
2022/12/30 06:53:06;;;;;;;5.60;2.20;;;;;;;;;;5017121;28;20018;-84
2022/12/30 06:55:31;;;;;;;3.95;2.70;;;;;;;;;;5017254;28;20411;-84
2022/12/30 06:57:57;;;;;;;4.38;2.80;;;;;;;;;;5018151;28;20038;-84
2022/12/30 07:00:22;;;;;;;4.75;2.70;;;;;;;;;;5018322;28;20045;-84
2022/12/30 07:02:48;;;;;;;5.45;2.30;;;;;;;;;;5022284;28;20045;-85
2022/12/30 07:05:14;;;;;;;4.43;2.00;;;;;;;;;;5032346;28;20034;-86
2022/12/30 07:07:39;;;;;;;3.88;1.95;;;;;;;;;;5019612;28;20060;-85
2022/12/30 07:10:05;;;;;;;3.90;2.03;;;;;;;;;;5019324;28;20417;-85
2022/12/30 07:12:31;;;;;;;3.65;2.08;;;;;;;;;;5019212;28;20045;-85
2022/12/30 07:14:56;;;;;;;3.05;1.83;;;;;;;;;;5037090;28;20041;-84
2022/12/30 07:17:22;;;;;;;4.20;1.95;;;;;;;;;;5036347;28;20461;-84
2022/12/30 07:19:47;;;;;;;1.80;1.50;;;;;;;;;;5037431;28;20037;-84
2022/12/30 07:22:13;;;;;;;2.97;1.70;;;;;;;;;;5036643;28;20099;-84
2022/12/30 07:24:39;;;;;;;3.53;1.80;;;;;;;;;;5036830;28;20063;-84
2022/12/30 07:27:04;;;;;;;3.55;1.52;;;;;;;;;;5038107;28;20057;-85
2022/12/30 07:29:30;;;;;;;3.67;2.00;;;;;;;;;;5037713;28;20037;-83
2022/12/30 07:31:57;;;;;;;2.22;1.40;;;;;;;;;;5038253;28;20037;-84
2022/12/30 07:34:22;;;;;;;5.10;2.35;;;;;;;;;;5039229;28;20048;-84
2022/12/30 07:36:47;;;;;;;4.55;3.05;;;;;;;;;;5020611;28;20036;-84
2022/12/30 07:39:13;;;;;;;5.38;3.10;;;;;;;;;;5021040;28;20037;-85
2022/12/30 07:41:38;;;;;;;4.40;2.92;;;;;;;;;;5038383;28;20052;-84
2022/12/30 07:44:09;;;;;;;3.58;2.25;;;;;;;;;;5020776;28;20044;-84
2022/12/30 07:46:36;;;;;;;5.88;2.10;;;;;;;;;;5020321;28;20034;-84
2022/12/30 07:49:02;;;;;;;2.95;1.50;;;;;;;;;;5037407;28;20401;-83
2022/12/30 07:51:28;;;;;;;3.15;1.77;;;;;;;;;;5035957;28;20025;-83
2022/12/30 07:53:53;;;;;;;2.75;1.30;;;;;;;;;;5036257;28;20077;-84
2022/12/30 07:56:19;;;;;;;2.60;1.50;;;;;;;;;;5034294;28;20029;-84
2022/12/30 07:58:44;;;;;;;2.88;1.45;;;;;;;;;;5035014;28;20458;-84
2022/12/30 08:01:12;;;;;;;2.20;1.45;;;;;;;;;;5034661;28;20101;-84
2022/12/30 08:03:40;;;;;;;3.38;1.95;;;;;;;;;;5036174;28;20056;-84
2022/12/30 08:06:08;;;;;;;3.97;2.00;;;;;;;;;;5018296;28;20041;-84
2022/12/30 08:08:35;;;;;;;2.35;1.60;;;;;;;;;;5035574;28;20486;-84
2022/12/30 08:11:04;;;;;;;1.88;1.30;;;;;;;;;;5019370;28;20037;-84
2022/12/30 08:13:34;;;;;;;2.35;1.80;;;;;;;;;;5036545;28;20037;-83
2022/12/30 08:16:04;;;;;;;2.40;1.48;;;;;;;;;;5037126;28;20041;-83
2022/12/30 08:18:29;;;;;;;3.22;1.88;;;;;;;;;;5034171;28;20068;-85
2022/12/30 08:21:02;;;;;;;3.25;1.77;;;;;;;;;;5033414;28;20482;-84
2022/12/30 08:23:31;;;;;;;11.23;5.22;;;;;;;;;;5034209;28;20048;-84
2022/12/30 08:26:02;;;;;;;7.35;3.85;;;;;;;;;;5033537;28;20025;-85
2022/12/30 08:28:28;;;;;;;3.70;2.05;;;;;;;;;;5019379;28;20120;-84
2022/12/30 08:30:53;;;;;;;3.28;1.92;;;;;;;;;;5039542;28;20052;-85
2022/12/30 08:33:18;;;;;;;4.80;2.20;;;;;;;;;;5039715;28;20041;-85
2022/12/30 08:35:44;;;;;;;3.70;1.85;;;;;;;;;;5037825;28;20033;-84
2022/12/30 08:38:09;;;;;;;2.60;1.30;;;;;;;;;;5022213;28;20057;-85
2022/12/30 08:40:35;;;;;;;2.53;1.23;;;;;;;;;;5038941;28;20502;-84
2022/12/30 08:43:00;;;;;;;2.35;1.00;;;;;;;;;;5037342;28;20187;-84
2022/12/30 08:45:26;;;;;;;2.30;1.30;;;;;;;;;;5036367;28;20060;-84
2022/12/30 08:47:51;;;;;;;1.20;0.70;;;;;;;;;;5022048;28;20048;-85
2022/12/30 08:50:18;;;;;;;1.92;1.00;;;;;;;;;;5029321;28;20041;-85
2022/12/30 08:52:43;;;;;;;1.65;1.02;;;;;;;;;;5018682;28;20509;-86
2022/12/30 08:55:09;;;;;;;1.95;1.10;;;;;;;;;;5018005;28;20038;-86
2022/12/30 08:57:38;;;;;;;1.67;0.90;;;;;;;;;;5002115;28;20058;-87
2022/12/30 09:00:04;;;;;;;2.85;0.95;;;;;;;;;;5019083;28;20486;-85
2022/12/30 09:02:29;;;;;;;2.80;0.90;;;;;;;;;;5018353;28;20044;-85
2022/12/30 09:04:54;;;;;;;6.50;4.28;;;;;;;;;;5017274;28;20034;-85
2022/12/30 09:07:20;;;;;;;10.07;6.95;;;;;;;;;;5018726;28;20407;-86
2022/12/30 09:09:45;;;;;;;12.55;7.32;;;;;;;;;;5001764;28;20105;-88
2022/12/30 09:12:11;;;;;;;11.80;7.20;;;;;;;;;;5018962;28;20460;-87
2022/12/30 09:14:36;;;;;;;7.80;4.90;;;;;;;;;;5019721;28;20088;-87
2022/12/30 09:17:02;;;;;;;6.75;4.47;;;;;;;;;;5002292;28;20033;-88
2022/12/30 09:19:27;;;;;;;3.05;1.90;;;;;;;;;;5001631;28;20080;-87
2022/12/30 09:21:53;;;;;;;8.23;4.28;;;;;;;;;;5019209;28;20042;-87
2022/12/30 09:24:18;;;;;;;23.85;15.23;;;;;;;;;;5019306;28;20053;-88
2022/12/30 09:26:44;;;;;;;5.05;2.70;;;;;;;;;;5016860;28;20518;-88
2022/12/30 09:29:09;;;;;;;1.27;0.90;;;;;;;;;;5002923;28;20034;-87
2022/12/30 09:31:35;;;;;;;342.45;226.50;;;;;;;;;;5017836;28;20085;-88
2022/12/30 09:34:00;;;;;;;49.92;29.20;;;;;;;;;;5015180;28;20025;-87
2022/12/30 09:36:26;;;;;;;14.07;7.95;;;;;;;;;;5016988;28;20033;-87
2022/12/30 09:38:51;;;;;;;33.83;17.13;;;;;;;;;;5018581;28;20536;-85
2022/12/30 09:44:40;;;;;;;8.68;4.80;;;;;;;;;;5018571;28;20049;-85
2022/12/30 09:47:27;;;;;;;7.80;5.35;;;;;;;;;;5018298;28;20100;-85
2022/12/30 09:50:00;;;;;;;3.25;2.20;;;;;;;;;;5002242;28;20623;-84
2022/12/30 09:52:38;;;;;;;5.20;3.55;;;;;;;;;;5017780;28;20045;-85
2022/12/30 09:55:17;;;;;;;2.85;1.85;;;;;;;;;;5000364;28;20419;-85
2022/12/30 09:57:49;;;;;;;2.95;1.80;;;;;;;;;;5018178;28;20041;-85
2022/12/30 10:00:18;;;;;;;2.03;1.40;;;;;;;;;;5017118;28;20044;-85
2022/12/30 10:03:02;;;;;;;4.50;1.70;;;;;;;;;;5000232;28;20549;-85
2022/12/30 10:05:43;;;;;;;2.22;1.58;;;;;;;;;;5018080;28;20042;-85
2022/12/30 10:08:21;;;;;;;0.70;0.60;;;;;;;;;;5016501;28;20060;-85
2022/12/30 10:10:59;;;;;;;0.70;0.60;;;;;;;;;;5018445;28;20097;-85
2022/12/30 10:13:38;;;;;;;1.10;0.80;;;;;;;;;;5017473;28;20057;-85
2022/12/30 10:16:41;;;;;;;0.70;0.60;;;;;;;;;;5016954;28;20041;-85
2022/12/30 10:19:35;;;;;;;1.48;0.95;;;;;;;;;;5008253;28;20045;-84
2022/12/30 10:22:06;;;;;;;1.20;0.80;;;;;;;;;;5001166;28;20132;-85
2022/12/30 10:24:49;;;;;;;2.47;1.25;;;;;;;;;;5018245;28;20038;-85
2022/12/30 10:27:21;;;;;;;1.83;1.38;;;;;;;;;;5017804;28;20030;-85
2022/12/30 10:29:47;;;;;;;2.67;1.13;;;;;;;;;;5019018;28;20507;-85
2022/12/30 10:32:21;;;;;;;1.38;1.00;;;;;;;;;;5018063;28;20033;-85
2022/12/30 10:35:23;;;;;;;4.45;2.85;;;;;;;;;;5017826;28;20061;-85
2022/12/30 10:37:56;;;;;;;7.30;5.50;;;;;;;;;;4952303;28;20081;-85
2022/12/30 10:40:27;;;;;;;2.08;1.40;;;;;;;;;;5001734;28;20132;-85
2022/12/30 10:43:22;;;;;;;1.75;1.00;;;;;;;;;;5016933;28;20038;-84
2022/12/30 10:46:12;;;;;;;1.65;0.90;;;;;;;;;;4999454;28;20045;-85
2022/12/30 10:48:47;;;;;;;0.80;0.80;;;;;;;;;;5001034;28;20038;-84
2022/12/30 10:51:15;;;;;;;1.02;0.82;;;;;;;;;;5017940;28;20053;-84
2022/12/30 10:53:44;;;;;;;1.15;0.68;;;;;;;;;;5018561;28;20442;-85
2022/12/30 10:56:28;;;;;;;1.17;0.50;;;;;;;;;;5018114;28;20087;-87
2022/12/30 10:58:57;;;;;;;0.73;0.40;;;;;;;;;;5018558;28;20483;-87
2022/12/30 11:01:35;;;;;;;0.93;0.50;;;;;;;;;;5017287;28;20038;-87
2022/12/30 11:04:01;;;;;;;2.00;1.33;;;;;;;;;;5015385;28;20040;-86
2022/12/30 11:06:57;;;;;;;2.13;1.10;;;;;;;;;;5014951;28;20419;-87
2022/12/30 11:09:23;;;;;;;1.83;1.10;;;;;;;;;;5016671;28;20123;-86
2022/12/30 11:15:03;;;;;;;4.57;1.08;;;;;;;;;;5015439;28;20442;-85
2022/12/30 11:17:32;;;;;;;6.85;3.22;;;;;;;;;;5016582;28;20038;-86
2022/12/30 11:20:04;;;;;;;3.22;1.58;;;;;;;;;;5014808;28;20494;-85
2022/12/30 11:22:30;;;;;;;2.90;1.50;;;;;;;;;;5014541;28;20426;-84
2022/12/30 11:25:03;;;;;;;0.50;0.50;;;;;;;;;;4996016;28;20036;-84
2022/12/30 11:27:40;;;;;;;0.88;0.50;;;;;;;;;;5013342;28;20478;-84
2022/12/30 11:30:07;;;;;;;8.95;6.45;;;;;;;;;;5012055;28;20095;-83
2022/12/30 11:32:33;;;;;;;6.07;3.65;;;;;;;;;;5012328;28;20037;-84
2022/12/30 11:34:59;;;;;;;50.88;29.02;;;;;;;;;;5016474;28;20041;-86
2022/12/30 11:37:32;;;;;;;20.77;11.43;;;;;;;;;;5017370;28;20037;-85
2022/12/30 11:40:23;;;;;;;35.28;23.13;;;;;;;;;;5016889;28;20033;-87
2022/12/30 11:43:13;;;;;;;4.25;1.58;;;;;;;;;;5007649;28;20045;-84
2022/12/30 11:45:49;;;;;;;1.00;0.60;;;;;;;;;;5014499;28;20055;-85
2022/12/30 11:48:25;;;;;;;7.30;5.47;;;;;;;;;;5014938;28;20085;-84
2022/12/30 11:50:53;;;;;;;4.40;2.30;;;;;;;;;;5015561;28;20503;-86
2022/12/30 11:53:20;;;;;;;0.65;0.65;;;;;;;;;;5013932;28;20384;-84
2022/12/30 11:55:51;;;;;;;0.80;0.70;;;;;;;;;;5013209;28;20038;-84
2022/12/30 11:58:17;;;;;;;2.45;1.50;;;;;;;;;;5012479;28;20034;-83
2022/12/30 12:00:46;;;;;;;1.58;0.80;;;;;;;;;;5013338;28;20426;-85
2022/12/30 12:03:17;;;;;;;3.60;2.22;;;;;;;;;;5015176;28;20324;-86
2022/12/30 12:05:44;;;;;;;2.33;1.30;;;;;;;;;;5017571;28;20042;-86
2022/12/30 12:08:19;;;;;;;2.75;1.00;;;;;;;;;;5018009;28;20402;-84
2022/12/30 12:11:02;;;;;;;1.50;1.13;;;;;;;;;;5017265;28;20030;-85
2022/12/30 12:13:39;;;;;;;1.45;0.90;;;;;;;;;;5017698;28;20021;-85
2022/12/30 12:16:06;;;;;;;2.67;1.23;;;;;;;;;;5016826;28;20038;-85
2022/12/30 12:18:46;;;;;;;1.73;0.90;;;;;;;;;;5014964;28;20033;-85
2022/12/30 12:21:27;;;;;;;1.70;0.90;;;;;;;;;;5015877;28;20041;-85
2022/12/30 12:24:13;;;;;;;2.17;0.90;;;;;;;;;;5027991;28;20034;-82
2022/12/30 12:26:50;;;;;;;6.78;4.40;;;;;;;;;;5018528;28;20081;-85
2022/12/30 12:29:16;;;;;;;4.95;3.03;;;;;;;;;;5018808;28;20037;-85
2022/12/30 12:32:01;;;;;;;9.38;6.10;;;;;;;;;;5017245;28;20430;-84
2022/12/30 12:34:45;;;;;;;4.28;1.40;;;;;;;;;;5016511;28;20052;-85
2022/12/30 12:37:30;;;;;;;10.38;5.68;;;;;;;;;;5017965;28;20038;-84
2022/12/30 12:40:11;;;;;;;4.50;1.85;;;;;;;;;;5018613;28;20034;-84
2022/12/30 12:42:37;;;;;;;3.35;1.10;;;;;;;;;;5018012;28;20490;-86
2022/12/30 12:45:14;;;;;;;2.60;1.08;;;;;;;;;;5017504;28;20025;-85
2022/12/30 12:48:09;;;;;;;6.53;3.47;;;;;;;;;;5016010;28;20034;-86
2022/12/30 12:50:59;;;;;;;2.67;1.67;;;;;;;;;;5001494;28;20037;-87
2022/12/30 12:53:56;;;;;;;4.28;1.10;;;;;;;;;;5015948;28;20030;-84
2022/12/30 12:57:04;;;;;;;2.90;1.10;;;;;;;;;;5016716;28;20564;-86
2022/12/30 12:59:51;;;;;;;3.97;2.55;;;;;;;;;;5007209;28;20523;-85
2022/12/30 13:02:47;;;;;;;1.20;1.00;;;;;;;;;;5015069;28;20065;-86
2022/12/30 13:05:50;;;;;;;2.10;1.30;;;;;;;;;;5013930;28;20038;-85
2022/12/30 13:08:53;;;;;;;3.38;1.40;;;;;;;;;;5014821;28;20026;-85
2022/12/30 13:11:40;;;;;;;1.75;1.20;;;;;;;;;;5013868;28;20042;-87
2022/12/30 13:14:30;;;;;;;3.47;1.00;;;;;;;;;;5014857;28;20030;-84
2022/12/30 13:17:01;;;;;;;4.65;1.90;;;;;;;;;;5015207;28;20026;-86
2022/12/30 13:19:35;;;;;;;0.90;0.82;;;;;;;;;;5014749;28;20049;-85
2022/12/30 13:22:11;;;;;;;3.53;2.30;;;;;;;;;;5013496;28;20030;-85
2022/12/30 13:24:41;;;;;;;1.85;1.10;;;;;;;;;;5014635;28;20083;-85
2022/12/30 13:27:16;;;;;;;2.40;1.10;;;;;;;;;;5014142;28;20038;-85
2022/12/30 13:29:42;;;;;;;8.00;2.60;;;;;;;;;;5013691;28;20411;-85
2022/12/30 13:32:40;;;;;;;2.95;1.60;;;;;;;;;;5014774;28;20479;-85
2022/12/30 13:35:31;;;;;;;4.35;2.03;;;;;;;;;;5025147;28;20041;-85
2022/12/30 13:38:29;;;;;;;6.72;3.60;;;;;;;;;;5016116;28;20038;-85
2022/12/30 13:41:34;;;;;;;9.13;5.07;;;;;;;;;;5016495;28;20444;-84
2022/12/30 13:44:03;;;;;;;4.72;3.28;;;;;;;;;;5015642;28;20069;-84
2022/12/30 13:46:32;;;;;;;6.13;2.88;;;;;;;;;;5026090;28;20033;-84
2022/12/30 13:49:15;;;;;;;6.47;3.20;;;;;;;;;;5034913;28;20033;-88
2022/12/30 13:51:53;;;;;;;3.80;2.50;;;;;;;;;;5033065;28;20037;-85
2022/12/30 13:54:19;;;;;;;9.98;5.82;;;;;;;;;;5036096;28;20739;-84
2022/12/30 13:56:49;;;;;;;6.55;3.72;;;;;;;;;;5037290;28;20044;-83
2022/12/30 13:59:26;;;;;;;3.47;2.50;;;;;;;;;;5035213;28;20109;-86
2022/12/30 14:02:17;;;;;;;4.15;2.50;;;;;;;;;;5033384;28;20491;-84
2022/12/30 14:04:48;;;;;;;13.10;5.35;;;;;;;;;;5033047;28;20038;-86
2022/12/30 14:07:38;;;;;;;4.10;2.15;;;;;;;;;;5034660;28;20037;-85
2022/12/30 14:10:20;;;;;;;3.28;1.83;;;;;;;;;;5034041;28;20064;-85
2022/12/30 14:13:04;;;;;;;4.00;1.60;;;;;;;;;;5015773;28;20037;-83
2022/12/30 14:15:32;;;;;;;2.20;1.60;;;;;;;;;;5032314;28;20414;-85
2022/12/30 14:18:17;;;;;;;2.78;1.73;;;;;;;;;;5033888;28;20021;-85
2022/12/30 14:20:53;;;;;;;4.95;2.15;;;;;;;;;;5032642;28;20569;-86
2022/12/30 14:23:43;;;;;;;4.65;2.15;;;;;;;;;;5033552;28;20410;-85
2022/12/30 14:26:37;;;;;;;3.83;1.90;;;;;;;;;;5031365;28;20044;-86
2022/12/30 14:29:18;;;;;;;3.67;2.40;;;;;;;;;;5030337;28;20506;-87
2022/12/30 14:31:49;;;;;;;5.88;2.55;;;;;;;;;;5041906;28;20040;-84
2022/12/30 14:34:33;;;;;;;9.07;3.10;;;;;;;;;;5034057;28;20045;-85
2022/12/30 14:37:21;;;;;;;5.82;3.60;;;;;;;;;;5034547;28;20494;-84
2022/12/30 14:39:48;;;;;;;2.53;1.92;;;;;;;;;;5034257;28;20044;-86
2022/12/30 14:42:29;;;;;;;5.10;2.38;;;;;;;;;;5033029;28;20116;-84
2022/12/30 14:44:57;;;;;;;5.85;2.40;;;;;;;;;;5032340;28;20044;-85
2022/12/30 14:47:44;;;;;;;4.25;2.13;;;;;;;;;;5034717;28;20041;-84
2022/12/30 14:50:16;;;;;;;4.50;2.03;;;;;;;;;;5033706;28;20041;-85
2022/12/30 14:52:45;;;;;;;2.35;1.50;;;;;;;;;;5032913;28;20103;-84
2022/12/30 14:55:21;;;;;;;3.78;1.52;;;;;;;;;;5032288;28;20068;-85
2022/12/30 14:57:58;;;;;;;3.05;1.65;;;;;;;;;;5035016;28;20405;-84
2022/12/30 15:00:27;;;;;;;20.30;4.65;;;;;;;;;;5018136;28;20033;-86
2022/12/30 15:02:55;;;;;;;34.80;7.78;;;;;;;;;;5036303;28;20038;-86
2022/12/30 15:05:33;;;;;;;74.35;25.90;;;;;;;;;;5037598;28;20453;-88
2022/12/30 15:08:02;;;;;;;24.80;10.07;;;;;;;;;;5041309;28;20058;-86
2022/12/30 15:10:56;;;;;;;13.13;6.00;;;;;;;;;;5034116;28;20048;-86
2022/12/30 15:13:27;;;;;;;;;;;;;;;;;;5033603;28;20072;-85
2022/12/30 15:16:04;;;;;;;17.92;8.70;;;;;;;;;;5035399;28;19917;-85
2022/12/30 15:18:31;;;;;;;15.65;7.70;;;;;;;;;;5035904;28;20037;-86
2022/12/30 15:20:57;;;;;;;29.88;13.27;;;;;;;;;;5034461;28;20093;-88
2022/12/30 15:23:23;;;;;;;40.17;13.43;;;;;;;;;;5036005;28;20044;-88
2022/12/30 15:26:00;;;;;;;21.15;9.95;;;;;;;;;;5035333;28;20026;-87
2022/12/30 15:28:27;;;;;;;10.38;4.78;;;;;;;;;;5035131;28;20037;-87
2022/12/30 15:30:52;;;;;;;5.72;2.85;;;;;;;;;;5035030;28;20037;-86
2022/12/30 15:33:18;;;;;;;23.45;11.48;;;;;;;;;;5033023;28;20141;-86
2022/12/30 15:35:43;;;;;;;16.90;8.07;;;;;;;;;;5031777;28;20417;-85
2022/12/30 15:38:12;;;;;;;17.75;9.40;;;;;;;;;;5032830;28;20600;-88
2022/12/30 15:40:42;;;;;;;20.40;11.95;;;;;;;;;;5033258;28;20037;-85
2022/12/30 15:43:13;;;;;;;20.75;12.45;;;;;;;;;;5030947;28;20125;-85
2022/12/30 15:45:42;;;;;;;10.85;5.82;;;;;;;;;;5032716;28;20030;-86
2022/12/30 15:48:38;;;;;;;7.68;2.92;;;;;;;;;;5031629;28;20040;-86
2022/12/30 15:51:12;;;;;;;6.22;2.53;;;;;;;;;;5022812;28;20045;-87
2022/12/30 15:53:45;;;;;;;9.70;5.50;;;;;;;;;;5032951;28;20037;-87
2022/12/30 15:56:13;;;;;;;6.22;2.88;;;;;;;;;;5044703;28;20034;-87
2022/12/30 15:59:00;;;;;;;3.67;2.00;;;;;;;;;;5034038;28;20044;-87
2022/12/30 16:01:46;;;;;;;4.50;2.40;;;;;;;;;;5033991;28;20057;-85
2022/12/30 16:04:14;;;;;;;3.72;2.20;;;;;;;;;;5036711;28;20479;-86
2022/12/30 16:06:48;;;;;;;3.70;1.80;;;;;;;;;;5036372;28;20033;-86